Maribel — LAGU6 — position and weather

sailwx.info

Track history (hours):
 
Tides and Currents Weather Stations Pressure Air Temp Water Temp Dewpoint Dewpoint Depression Visibility Wind Speed Wind Dir Waves Ship Positions

Maribel

Last reported at 2017-Feb-18 04:33 UTC. Time now 2017-Feb-21 12:11 UTC.
Position N 36°12' E 014°46'.

Length 227 m; draft 12.3 m.

Type: Ship. MMSI: 257872000.

Date/timePositionNaut miles runAvg speedWind from/ knotsBaromVisibWave heightAir tempDewpointWater temp
2017-Feb-18 04:33N 36°12' E 014°46'1515.1
2017-Feb-18 03:33N 36°17' E 014°28'1515.4
2017-Feb-18 02:34N 36°21' E 014°10'1615.5
2017-Feb-18 01:33N 36°26' E 013°51'1815.6
2017-Feb-18 00:25N 36°31' E 013°30'1415.2
2017-Feb-17 23:31N 36°36' E 013°15'3015.2
2017-Feb-17 21:33N 36°49' E 012°41'  
2017-Feb-15 11:27N 36°03' W 004°53'1213.7
2017-Feb-15 10:33N 36°01' W 005°08'1212.1
2017-Feb-15 09:33N 35°58' W 005°23'1312.7
2017-Feb-15 08:33N 35°55' W 005°38'22610.7
2017-Feb-14 11:27N 37°32' W 009°52'1112.2
2017-Feb-14 10:34N 37°43' W 009°55'1312.0
2017-Feb-14 09:26N 37°56' W 009°59'1112.1
2017-Feb-14 08:33N 38°06' W 010°01'1212.1
2017-Feb-14 07:34N 38°18' W 010°05'1211.8
2017-Feb-14 06:33N 38°30' W 010°08'1211.9
2017-Feb-14 05:33N 38°41' W 010°11'1211.6
2017-Feb-14 04:34N 38°53' W 010°12'  
2017-Feb-11 14:27N 49°48' W 003°26'1314.8
2017-Feb-11 13:33N 49°55' W 003°08'1515.1
2017-Feb-11 12:33N 50°00' W 002°46'2713.4
2017-Feb-11 10:34N 50°07' W 002°06'1110.5
2017-Feb-11 09:33N 50°10' W 001°50'9 9.2
2017-Feb-11 08:33N 50°12' W 001°36'9 8.9
2017-Feb-11 07:32N 50°15' W 001°22'3611.7
2017-Feb-11 04:28N 50°25' W 000°28'1314.4
2017-Feb-11 03:34N 50°29' W 000°09'1414.4
2017-Feb-11 02:33N 50°33' E 000°13'1414.1
2017-Feb-11 01:34N 50°37' E 000°34'1313.1
2017-Feb-11 00:34N 50°45' E 000°51'1211.9
2017-Feb-10 23:32N 50°52' E 001°06'1111.2
2017-Feb-10 22:33N 50°60' E 001°19'1312.7
2017-Feb-10 21:33N 51°08' E 001°34'1414.3
2017-Feb-10 20:34N 51°18' E 001°50'1111.3
2017-Feb-10 19:34N 51°23' E 002°06'1312.9
2017-Feb-10 18:34N 51°23' E 002°27'1313.2
2017-Feb-10 17:33N 51°25' E 002°48'1413.8
2017-Feb-10 16:33N 51°24' E 003°10'1514.7
2017-Feb-10 15:34N 51°26' E 003°33'1111.5
2017-Feb-10 14:34N 51°21' E 003°50'8 8.4
2017-Feb-10 13:33N 51°24' E 004°02'7 7.3
2017-Feb-10 12:33N 51°22' E 004°13'3 2.7
2017-Feb-10 11:33N 51°21' E 004°17'0 0.3
2017-Feb-10 10:33N 51°21' E 004°18'5 4.8
2017-Feb-10 09:34N 51°16' E 004°21'0 0.0
2017-Feb-10 08:34N 51°16' E 004°21'0 0.0
2017-Feb-10 07:34N 51°16' E 004°21'0 0.0
2017-Feb-10 06:33N 51°16' E 004°21'0 0.0
2017-Feb-10 05:34N 51°16' E 004°21'  
Track history (hours):
 
Tides and Currents Weather Stations Pressure Air Temp Water Temp Dewpoint Dewpoint Depression Visibility Wind Speed Wind Dir Waves Ship Positions

Maribel

Last reported at 2017-Feb-18 04:33 UTC. Time now 2017-Feb-21 12:11 UTC.
Position N 36°12' E 014°46'.

Length 227 m; draft 12.3 m.

Type: Ship. MMSI: 257872000.

Date/timePositionNaut miles runAvg speedWind from/ knotsBaromVisibWave heightAir tempDewpointWater temp
2017-Feb-18 04:33N 36°12' E 014°46'1515.1
2017-Feb-18 03:33N 36°17' E 014°28'1515.4
2017-Feb-18 02:34N 36°21' E 014°10'1615.5
2017-Feb-18 01:33N 36°26' E 013°51'1815.6
2017-Feb-18 00:25N 36°31' E 013°30'1415.2
2017-Feb-17 23:31N 36°36' E 013°15'3015.2
2017-Feb-17 21:33N 36°49' E 012°41'  
2017-Feb-15 11:27N 36°03' W 004°53'1213.7
2017-Feb-15 10:33N 36°01' W 005°08'1212.1
2017-Feb-15 09:33N 35°58' W 005°23'1312.7
2017-Feb-15 08:33N 35°55' W 005°38'22610.7
2017-Feb-14 11:27N 37°32' W 009°52'1112.2
2017-Feb-14 10:34N 37°43' W 009°55'1312.0
2017-Feb-14 09:26N 37°56' W 009°59'1112.1
2017-Feb-14 08:33N 38°06' W 010°01'1212.1
2017-Feb-14 07:34N 38°18' W 010°05'1211.8
2017-Feb-14 06:33N 38°30' W 010°08'1211.9
2017-Feb-14 05:33N 38°41' W 010°11'1211.6
2017-Feb-14 04:34N 38°53' W 010°12'  
2017-Feb-11 14:27N 49°48' W 003°26'1314.8
2017-Feb-11 13:33N 49°55' W 003°08'1515.1
2017-Feb-11 12:33N 50°00' W 002°46'2713.4
2017-Feb-11 10:34N 50°07' W 002°06'1110.5
2017-Feb-11 09:33N 50°10' W 001°50'9 9.2
2017-Feb-11 08:33N 50°12' W 001°36'9 8.9
2017-Feb-11 07:32N 50°15' W 001°22'3611.7
2017-Feb-11 04:28N 50°25' W 000°28'1314.4
2017-Feb-11 03:34N 50°29' W 000°09'1414.4
2017-Feb-11 02:33N 50°33' E 000°13'1414.1
2017-Feb-11 01:34N 50°37' E 000°34'1313.1
2017-Feb-11 00:34N 50°45' E 000°51'1211.9
2017-Feb-10 23:32N 50°52' E 001°06'1111.2
2017-Feb-10 22:33N 50°60' E 001°19'1312.7
2017-Feb-10 21:33N 51°08' E 001°34'1414.3
2017-Feb-10 20:34N 51°18' E 001°50'1111.3
2017-Feb-10 19:34N 51°23' E 002°06'1312.9
2017-Feb-10 18:34N 51°23' E 002°27'1313.2
2017-Feb-10 17:33N 51°25' E 002°48'1413.8
2017-Feb-10 16:33N 51°24' E 003°10'1514.7
2017-Feb-10 15:34N 51°26' E 003°33'1111.5
2017-Feb-10 14:34N 51°21' E 003°50'8 8.4
2017-Feb-10 13:33N 51°24' E 004°02'7 7.3
2017-Feb-10 12:33N 51°22' E 004°13'3 2.7
2017-Feb-10 11:33N 51°21' E 004°17'0 0.3
2017-Feb-10 10:33N 51°21' E 004°18'5 4.8
2017-Feb-10 09:34N 51°16' E 004°21'0 0.0
2017-Feb-10 08:34N 51°16' E 004°21'0 0.0
2017-Feb-10 07:34N 51°16' E 004°21'0 0.0
2017-Feb-10 06:33N 51°16' E 004°21'0 0.0
2017-Feb-10 05:34N 51°16' E 004°21'  

Dump ship's entire track history